Time;durP1;ratioP1;P1;durP2;ratioP2;P2;SDS_P1;SDS_P2;PMS_P1;PMS_P2;Temp;Humidity;BMP_temperature;BMP_pressure;BME280_temperature;BME280_humidity;BME280_pressure;Samples;Min_cycle;Max_cycle;Signal;HPM_P1;HPM_P2
2022/09/01 00:01:43;;;;;;;3.63;1.75;;;16.10;99.90;;;;;;5016244;28;20041;-79
2022/09/01 00:04:12;;;;;;;3.70;1.67;;;16.10;99.90;;;;;;5034326;28;20026;-78
2022/09/01 00:06:46;;;;;;;4.03;1.60;;;16.10;99.90;;;;;;5029990;28;20046;-78
2022/09/01 00:09:15;;;;;;;4.13;1.80;;;16.10;99.90;;;;;;5023873;28;20038;-78
2022/09/01 00:11:45;;;;;;;3.53;1.75;;;16.30;99.90;;;;;;5029589;28;20053;-78
2022/09/01 00:14:13;;;;;;;3.60;1.75;;;16.00;99.90;;;;;;5031693;28;20077;-78
2022/09/01 00:16:38;;;;;;;4.65;1.80;;;16.00;99.90;;;;;;5027391;28;20099;-78
2022/09/01 00:19:05;;;;;;;3.22;1.58;;;16.00;99.90;;;;;;5032298;28;20037;-78
2022/09/01 00:21:40;;;;;;;3.38;1.75;;;16.00;99.90;;;;;;5023834;28;20042;-78
2022/09/01 00:24:11;;;;;;;4.28;1.48;;;16.00;99.90;;;;;;5035478;28;20037;-79
2022/09/01 00:26:38;;;;;;;2.90;1.63;;;15.90;99.90;;;;;;5033859;28;20099;-78
2022/09/01 00:29:06;;;;;;;3.80;1.58;;;15.90;99.90;;;;;;5051815;28;20065;-79
2022/09/01 00:31:33;;;;;;;4.18;1.77;;;15.90;99.90;;;;;;5051017;28;20045;-79
2022/09/01 00:33:59;;;;;;;3.88;1.75;;;15.90;99.90;;;;;;5046830;28;20110;-78
2022/09/01 00:36:25;;;;;;;3.53;1.90;;;15.90;99.90;;;;;;5033909;28;20045;-78
2022/09/01 00:38:51;;;;;;;3.08;1.77;;;15.80;99.90;;;;;;5033817;28;20076;-78
2022/09/01 00:41:20;;;;;;;3.17;1.70;;;15.70;99.90;;;;;;5039517;28;20028;-78
2022/09/01 00:43:50;;;;;;;2.75;1.50;;;15.80;99.90;;;;;;5034654;28;20038;-78
2022/09/01 00:46:20;;;;;;;6.07;1.63;;;15.80;99.90;;;;;;5032410;28;20030;-78
2022/09/01 00:48:58;;;;;;;2.33;1.58;;;16.10;99.90;;;;;;5037613;28;21487;-78
2022/09/01 00:51:27;;;;;;;2.85;1.80;;;15.70;99.90;;;;;;5033994;28;20042;-78
2022/09/01 00:53:55;;;;;;;4.53;1.60;;;15.70;99.90;;;;;;5011325;28;20060;-78
2022/09/01 00:56:22;;;;;;;3.40;1.70;;;15.70;99.90;;;;;;5032665;28;20120;-79
2022/09/01 00:58:50;;;;;;;2.70;1.63;;;16.00;99.90;;;;;;5036610;28;20030;-78
2022/09/01 01:01:17;;;;;;;2.03;1.60;;;15.60;99.90;;;;;;5026676;28;20180;-78
2022/09/01 01:03:46;;;;;;;2.85;1.70;;;15.70;99.90;;;;;;5016717;28;20060;-79
2022/09/01 01:06:18;;;;;;;3.90;1.77;;;15.90;99.90;;;;;;5032758;28;20072;-78
2022/09/01 01:08:59;;;;;;;2.40;1.52;;;15.60;99.90;;;;;;5049913;28;20045;-78
2022/09/01 01:11:31;;;;;;;4.00;1.95;;;15.60;99.90;;;;;;5052974;28;20496;-78
2022/09/01 01:14:14;;;;;;;2.30;1.50;;;15.60;99.90;;;;;;5026868;28;20046;-78
2022/09/01 01:16:43;;;;;;;3.65;1.58;;;15.60;99.90;;;;;;5028096;28;20041;-78
2022/09/01 01:24:57;;;;;;;2.10;1.65;;;15.50;99.90;;;;;;5039632;28;20510;-78
2022/09/01 01:27:23;;;;;;;4.88;1.80;;;15.50;99.90;;;;;;5027081;28;20053;-78
2022/09/01 01:29:51;;;;;;;2.80;1.52;;;15.50;99.90;;;;;;5051377;28;20097;-78
2022/09/01 01:32:17;;;;;;;2.33;1.45;;;15.40;99.90;;;;;;5027784;28;20402;-78
2022/09/01 01:34:44;;;;;;;2.05;1.70;;;15.40;99.90;;;;;;5031404;28;20037;-78
2022/09/01 01:37:12;;;;;;;1.42;1.33;;;15.40;99.90;;;;;;5032030;28;20038;-78
2022/09/01 01:39:41;;;;;;;2.50;1.83;;;15.40;99.90;;;;;;5031597;28;20532;-78
2022/09/01 01:42:08;;;;;;;2.63;1.70;;;15.40;99.90;;;;;;5025513;28;20042;-78
2022/09/01 01:44:37;;;;;;;3.83;1.90;;;15.30;99.90;;;;;;5016292;28;20041;-78
2022/09/01 01:47:11;;;;;;;4.43;1.60;;;15.30;99.90;;;;;;5004649;28;20403;-79
2022/09/01 01:49:42;;;;;;;2.95;1.60;;;15.40;99.90;;;;;;5017660;28;20095;-78
2022/09/01 01:52:11;;;;;;;4.72;1.67;;;15.20;99.90;;;;;;5013378;28;20033;-78
2022/09/01 01:54:37;;;;;;;2.85;1.65;;;15.20;99.90;;;;;;5031493;28;20049;-78
2022/09/01 01:57:03;;;;;;;4.03;1.80;;;15.20;99.90;;;;;;5014621;28;20045;-78
2022/09/01 01:59:32;;;;;;;2.75;1.58;;;15.20;99.90;;;;;;5029846;28;20037;-77
2022/09/01 02:01:59;;;;;;;4.10;1.63;;;15.10;99.90;;;;;;5030045;28;20422;-77
2022/09/01 02:04:26;;;;;;;2.45;1.48;;;15.20;99.90;;;;;;5035670;28;20046;-77
2022/09/01 02:06:54;;;;;;;2.03;1.60;;;15.10;99.90;;;;;;5021166;28;20049;-78
2022/09/01 02:09:22;;;;;;;3.63;1.63;;;15.10;99.90;;;;;;5033208;28;20037;-78
2022/09/01 02:11:55;;;;;;;3.90;1.80;;;15.00;99.90;;;;;;5028175;28;20037;-78
2022/09/01 02:14:24;;;;;;;3.20;1.90;;;15.10;99.90;;;;;;5044908;28;20096;-78
2022/09/01 02:16:54;;;;;;;3.00;1.70;;;15.50;99.90;;;;;;5039810;28;20045;-78
2022/09/01 02:19:20;;;;;;;4.85;1.80;;;15.00;99.90;;;;;;5031575;28;20045;-78
2022/09/01 02:21:53;;;;;;;3.33;1.90;;;15.00;99.90;;;;;;5046071;28;20047;-78
2022/09/01 02:24:22;;;;;;;2.70;1.45;;;15.00;99.90;;;;;;5033264;28;20026;-78
2022/09/01 02:26:48;;;;;;;2.80;1.80;;;15.10;99.90;;;;;;5023408;28;20045;-78
2022/09/01 02:29:19;;;;;;;1.63;1.42;;;14.90;99.90;;;;;;5033190;28;20401;-78
2022/09/01 02:31:48;;;;;;;2.80;1.80;;;14.90;99.90;;;;;;5030804;28;20045;-78
2022/09/01 02:34:15;;;;;;;2.58;1.50;;;15.20;99.90;;;;;;5028627;28;20044;-78
2022/09/01 02:36:48;;;;;;;4.20;1.73;;;14.90;99.90;;;;;;5046451;28;20056;-77
2022/09/01 02:39:35;;;;;;;2.55;1.60;;;14.80;99.90;;;;;;5046682;28;20060;-78
2022/09/01 02:42:01;;;;;;;4.15;1.83;;;14.80;99.90;;;;;;5035294;28;20092;-78
2022/09/01 02:44:29;;;;;;;2.45;1.67;;;14.80;99.90;;;;;;5028610;28;20041;-78
2022/09/01 02:46:55;;;;;;;4.05;2.03;;;14.80;99.90;;;;;;5043882;28;20049;-78
2022/09/01 02:49:27;;;;;;;5.72;2.00;;;14.70;99.90;;;;;;5030075;28;20565;-77
2022/09/01 02:51:56;;;;;;;2.65;1.65;;;14.90;99.90;;;;;;5011501;28;20522;-78
2022/09/01 02:54:24;;;;;;;2.95;1.90;;;14.70;99.90;;;;;;5032099;28;20053;-78
2022/09/01 02:56:54;;;;;;;;;;;14.70;99.90;;;;;;5014543;28;20780;-78
2022/09/01 02:59:22;;;;;;;5.47;1.63;;;14.70;99.90;;;;;;5029359;28;19917;-78
2022/09/01 03:01:50;;;;;;;2.92;1.67;;;14.60;99.90;;;;;;5006363;28;20033;-77
2022/09/01 03:04:18;;;;;;;3.83;1.70;;;14.60;99.90;;;;;;5021597;28;20117;-78
2022/09/01 03:06:45;;;;;;;3.20;1.90;;;14.70;99.90;;;;;;5015067;28;20038;-78
2022/09/01 03:09:14;;;;;;;3.80;1.80;;;14.60;99.90;;;;;;5036352;28;20120;-78
2022/09/01 03:11:44;;;;;;;2.25;1.80;;;14.90;99.90;;;;;;5034329;28;20033;-78
2022/09/01 03:14:13;;;;;;;3.13;1.85;;;14.70;99.90;;;;;;5011680;28;20498;-78
2022/09/01 03:16:38;;;;;;;2.38;1.85;;;14.50;99.90;;;;;;5031143;28;20555;-78
2022/09/01 03:19:07;;;;;;;2.40;1.73;;;14.40;99.90;;;;;;5017820;28;20531;-78
2022/09/01 03:21:36;;;;;;;4.20;1.70;;;14.50;99.90;;;;;;5032857;28;20041;-78
2022/09/01 03:24:02;;;;;;;3.10;1.90;;;14.50;99.90;;;;;;5028645;28;20041;-78
2022/09/01 03:26:29;;;;;;;2.53;1.70;;;14.50;99.90;;;;;;5034063;28;20448;-78
2022/09/01 03:28:55;;;;;;;2.65;1.88;;;14.40;99.90;;;;;;5032185;28;20037;-78
2022/09/01 03:31:25;;;;;;;3.92;2.10;;;14.40;99.90;;;;;;5050127;28;20458;-78
2022/09/01 03:33:53;;;;;;;4.55;2.17;;;14.40;99.90;;;;;;5040650;28;20041;-78
2022/09/01 03:36:19;;;;;;;1.90;1.70;;;14.30;99.90;;;;;;5037745;28;20442;-78
2022/09/01 03:38:50;;;;;;;3.92;1.70;;;14.90;99.90;;;;;;5029480;28;20125;-78
2022/09/01 03:41:20;;;;;;;3.42;1.73;;;14.30;99.90;;;;;;5025843;28;20038;-78
2022/09/01 03:43:48;;;;;;;2.30;1.70;;;14.30;99.90;;;;;;5038883;28;20092;-78
2022/09/01 03:46:21;;;;;;;2.75;1.90;;;14.30;99.90;;;;;;5031138;28;20044;-79
2022/09/01 03:48:52;;;;;;;3.00;1.95;;;14.20;99.90;;;;;;5021236;28;20084;-78
2022/09/01 03:51:21;;;;;;;2.45;1.90;;;14.60;99.90;;;;;;5031580;28;20041;-78
2022/09/01 03:53:48;;;;;;;2.33;1.80;;;14.30;99.90;;;;;;5033764;28;20104;-78
2022/09/01 03:56:16;;;;;;;3.42;1.90;;;14.50;99.90;;;;;;5034598;28;20044;-79
2022/09/01 03:58:46;;;;;;;4.00;2.00;;;14.10;99.90;;;;;;5035538;28;20401;-78
2022/09/01 04:01:12;;;;;;;4.38;1.98;;;14.60;99.90;;;;;;5037462;28;20029;-78
2022/09/01 04:03:40;;;;;;;4.03;2.00;;;14.20;99.90;;;;;;5033812;28;20454;-78
2022/09/01 04:06:08;;;;;;;3.78;2.08;;;14.10;99.90;;;;;;5035188;28;20041;-78
2022/09/01 04:08:35;;;;;;;4.13;2.15;;;14.10;99.90;;;;;;5032491;28;20382;-77
2022/09/01 04:11:09;;;;;;;3.45;2.08;;;14.10;99.90;;;;;;5027816;28;20446;-78
2022/09/01 04:13:38;;;;;;;2.35;1.70;;;14.10;99.90;;;;;;5034216;28;20548;-78
2022/09/01 04:18:03;;;;;;;2.83;1.80;;;14.10;99.90;;;;;;5045980;28;20135;-78
2022/09/01 04:18:56;;;;;;;3.40;2.10;;;14.00;99.90;;;;;;5026779;28;20422;-78
2022/09/01 04:21:21;;;;;;;5.25;2.17;;;14.00;99.90;;;;;;5049434;28;20044;-78
2022/09/01 04:23:47;;;;;;;2.85;1.90;;;14.00;99.90;;;;;;5028797;28;20034;-78
2022/09/01 04:26:19;;;;;;;2.28;1.83;;;14.10;99.90;;;;;;5026720;28;20042;-78
2022/09/01 04:28:48;;;;;;;3.03;1.90;;;13.90;99.90;;;;;;5032651;28;20045;-78
2022/09/01 04:31:17;;;;;;;3.45;1.98;;;13.90;99.90;;;;;;5031796;28;20041;-78
2022/09/01 04:33:53;;;;;;;3.35;2.00;;;13.90;99.90;;;;;;5028876;28;20450;-78
2022/09/01 04:36:24;;;;;;;4.68;1.88;;;13.90;99.90;;;;;;5012396;28;20045;-78
2022/09/01 04:38:56;;;;;;;3.88;1.90;;;14.00;99.90;;;;;;5025009;28;20045;-78
2022/09/01 04:41:24;;;;;;;3.92;2.00;;;13.90;99.90;;;;;;5051664;28;20038;-78
2022/09/01 04:43:55;;;;;;;2.67;1.80;;;13.80;99.90;;;;;;5046137;28;20117;-78
2022/09/01 04:46:22;;;;;;;3.13;2.08;;;13.90;99.90;;;;;;5020821;28;20069;-77
2022/09/01 04:48:52;;;;;;;3.92;2.00;;;13.80;99.90;;;;;;5030464;28;20037;-79
2022/09/01 04:51:19;;;;;;;2.35;1.88;;;13.80;99.90;;;;;;5040013;28;20041;-78
2022/09/01 04:53:47;;;;;;;2.67;1.92;;;13.80;99.90;;;;;;5029655;28;20095;-78
2022/09/01 04:56:19;;;;;;;2.65;1.80;;;13.80;99.90;;;;;;5028529;28;20042;-78
2022/09/01 04:58:46;;;;;;;3.20;2.05;;;13.70;99.90;;;;;;5004544;28;20029;-78
2022/09/01 05:01:18;;;;;;;3.40;2.15;;;13.80;99.90;;;;;;5014198;28;20026;-78
2022/09/01 05:03:45;;;;;;;4.30;1.92;;;13.80;99.90;;;;;;5008953;28;20041;-78
2022/09/01 05:06:16;;;;;;;3.13;2.08;;;14.10;99.90;;;;;;5005087;28;20164;-78
2022/09/01 05:08:44;;;;;;;;;;;13.80;99.90;;;;;;5015201;28;20045;-78
2022/09/01 05:11:18;;;;;;;3.95;2.00;;;13.70;99.90;;;;;;5025447;28;19932;-77
2022/09/01 05:13:46;;;;;;;4.00;2.33;;;13.70;99.90;;;;;;5048500;28;20494;-78
2022/09/01 05:16:18;;;;;;;3.90;2.00;;;13.70;99.90;;;;;;5005144;28;20041;-78
2022/09/01 05:18:46;;;;;;;3.65;2.03;;;13.70;99.90;;;;;;5016758;28;20071;-78
2022/09/01 05:21:15;;;;;;;2.83;1.98;;;13.70;99.90;;;;;;5026412;28;20042;-78
2022/09/01 05:23:43;;;;;;;4.07;1.77;;;13.70;99.90;;;;;;5036663;28;20126;-78
2022/09/01 05:26:20;;;;;;;5.93;2.17;;;13.90;99.90;;;;;;5030896;28;20045;-78
2022/09/01 05:28:52;;;;;;;3.58;2.05;;;13.70;99.90;;;;;;5017551;28;20053;-78
2022/09/01 05:31:18;;;;;;;4.60;2.20;;;13.70;99.90;;;;;;5047622;28;20069;-78
2022/09/01 05:33:47;;;;;;;4.00;2.20;;;13.70;99.90;;;;;;5031044;28;20410;-77
2022/09/01 05:36:18;;;;;;;2.75;1.92;;;13.70;99.90;;;;;;5033019;28;20110;-78
2022/09/01 05:38:47;;;;;;;5.05;2.20;;;13.90;99.90;;;;;;5032732;28;20048;-78
2022/09/01 05:41:14;;;;;;;3.38;2.10;;;13.70;99.90;;;;;;5031088;28;20081;-78
2022/09/01 05:43:47;;;;;;;3.13;2.05;;;13.70;99.90;;;;;;5015332;28;20477;-78
2022/09/01 05:46:15;;;;;;;4.35;2.05;;;13.70;99.90;;;;;;5047697;28;20041;-77
2022/09/01 05:48:45;;;;;;;3.70;2.00;;;13.70;99.90;;;;;;5031516;28;20042;-79
2022/09/01 05:51:15;;;;;;;4.35;2.10;;;13.70;99.90;;;;;;5021715;28;20045;-78
2022/09/01 05:53:42;;;;;;;2.90;2.00;;;13.70;99.90;;;;;;5017534;28;20040;-78
2022/09/01 05:56:12;;;;;;;4.70;1.90;;;14.00;99.90;;;;;;5030462;28;20055;-78
2022/09/01 05:58:40;;;;;;;3.90;2.22;;;13.80;99.90;;;;;;5023543;28;20509;-77
2022/09/01 06:01:15;;;;;;;3.05;2.13;;;13.70;99.90;;;;;;5046463;28;20558;-78
2022/09/01 06:03:43;;;;;;;4.25;2.40;;;13.80;99.90;;;;;;5026584;28;20120;-78
2022/09/01 06:06:11;;;;;;;5.53;2.03;;;14.00;99.90;;;;;;5016648;28;20052;-78
2022/09/01 06:08:37;;;;;;;4.10;2.25;;;13.80;99.90;;;;;;5026809;28;20049;-78
2022/09/01 06:11:11;;;;;;;3.78;2.03;;;13.90;99.90;;;;;;5031884;28;20043;-78
2022/09/01 06:13:40;;;;;;;6.80;2.50;;;13.90;99.90;;;;;;5039930;28;20046;-78
2022/09/01 06:16:08;;;;;;;4.78;2.42;;;13.90;99.90;;;;;;5024147;28;20048;-78
2022/09/01 06:18:35;;;;;;;3.88;2.15;;;14.00;99.90;;;;;;5030785;28;20069;-78
2022/09/01 06:21:07;;;;;;;3.42;2.00;;;14.10;99.90;;;;;;5026595;28;20034;-78
2022/09/01 06:23:34;;;;;;;3.20;2.17;;;14.00;99.90;;;;;;5032789;28;20087;-78
2022/09/01 06:26:02;;;;;;;4.55;2.10;;;14.00;99.90;;;;;;5028406;28;20087;-78
2022/09/01 06:28:28;;;;;;;3.60;2.20;;;14.00;99.90;;;;;;5015814;28;20041;-78
2022/09/01 06:30:59;;;;;;;5.03;2.10;;;14.00;99.90;;;;;;5049481;28;20037;-78
2022/09/01 06:33:25;;;;;;;4.10;2.47;;;14.10;99.90;;;;;;5017953;28;20076;-78
2022/09/01 06:35:52;;;;;;;3.92;2.40;;;14.10;99.90;;;;;;5031058;28;20072;-78
2022/09/01 06:38:19;;;;;;;3.90;2.38;;;14.10;99.90;;;;;;5018669;28;20069;-78
2022/09/01 06:40:45;;;;;;;5.22;2.55;;;14.30;99.90;;;;;;5033015;28;20122;-78
2022/09/01 06:43:12;;;;;;;7.45;2.67;;;14.20;99.90;;;;;;5035499;28;20183;-78
2022/09/01 06:45:53;;;;;;;4.30;2.53;;;14.40;99.90;;;;;;5030312;28;20037;-78
2022/09/01 06:48:18;;;;;;;5.57;2.40;;;14.20;99.90;;;;;;5020598;28;20037;-78
2022/09/01 06:50:45;;;;;;;6.20;2.65;;;14.30;99.90;;;;;;5030553;28;20060;-78
2022/09/01 06:53:12;;;;;;;6.18;2.60;;;14.40;99.90;;;;;;5030865;28;20037;-78
2022/09/01 06:55:40;;;;;;;5.78;2.40;;;14.30;99.90;;;;;;5037228;28;20051;-78
2022/09/01 06:58:08;;;;;;;3.83;2.30;;;14.40;99.90;;;;;;5058091;28;20041;-78
2022/09/01 07:00:40;;;;;;;5.47;2.70;;;14.40;99.90;;;;;;5031592;28;20042;-78
2022/09/01 07:03:10;;;;;;;3.67;2.13;;;14.60;99.90;;;;;;5028435;28;20037;-78
2022/09/01 07:05:40;;;;;;;6.22;2.15;;;14.50;99.90;;;;;;5047090;28;20029;-78
2022/09/01 07:08:09;;;;;;;4.63;2.38;;;14.50;99.90;;;;;;5029474;28;20041;-78
2022/09/01 07:10:49;;;;;;;4.82;2.30;;;14.50;99.90;;;;;;5030826;28;20045;-78
2022/09/01 07:13:24;;;;;;;3.50;2.40;;;14.60;99.90;;;;;;5025611;28;20493;-78
2022/09/01 07:15:52;;;;;;;4.57;2.42;;;14.60;99.90;;;;;;5049059;28;20080;-78
2022/09/01 07:18:24;;;;;;;4.47;2.10;;;14.70;99.90;;;;;;5031931;28;20490;-78
2022/09/01 07:20:51;;;;;;;;;;;14.70;99.90;;;;;;5046512;28;20493;-78
2022/09/01 07:23:19;;;;;;;4.28;2.38;;;14.70;99.90;;;;;;5035260;28;19921;-78
2022/09/01 07:25:47;;;;;;;5.30;2.35;;;15.20;99.90;;;;;;5031437;28;20064;-77
2022/09/01 07:28:15;;;;;;;6.88;2.22;;;14.90;99.90;;;;;;5036077;28;20100;-77
2022/09/01 07:30:49;;;;;;;5.60;2.20;;;14.90;99.90;;;;;;5029923;28;20038;-78
2022/09/01 07:33:19;;;;;;;6.57;2.25;;;14.90;99.90;;;;;;5028480;28;20392;-77
2022/09/01 07:35:46;;;;;;;3.17;2.10;;;15.00;99.90;;;;;;5027322;28;20045;-77
2022/09/01 07:38:13;;;;;;;7.80;2.45;;;15.00;99.90;;;;;;5034686;28;20053;-77
2022/09/01 07:40:41;;;;;;;3.83;2.20;;;15.10;99.90;;;;;;5023565;28;20026;-77
2022/09/01 07:43:22;;;;;;;3.38;1.98;;;15.70;99.90;;;;;;5050030;28;20061;-78
2022/09/01 07:45:49;;;;;;;3.10;1.85;;;15.10;99.90;;;;;;5044461;28;20041;-79
2022/09/01 07:48:21;;;;;;;3.33;2.08;;;15.20;99.90;;;;;;5035341;28;20111;-79
2022/09/01 07:50:52;;;;;;;5.32;2.13;;;15.20;99.90;;;;;;5024868;28;20060;-79
2022/09/01 07:53:24;;;;;;;3.90;2.30;;;15.30;99.90;;;;;;5035715;28;20042;-79
2022/09/01 07:55:54;;;;;;;3.50;2.33;;;15.40;99.90;;;;;;5023564;28;20131;-79
2022/09/01 07:58:25;;;;;;;4.18;2.22;;;15.30;99.90;;;;;;5035805;28;20090;-78
2022/09/01 08:00:52;;;;;;;3.83;2.47;;;15.50;99.90;;;;;;5035556;28;20044;-79
2022/09/01 08:03:21;;;;;;;4.00;1.95;;;15.50;99.90;;;;;;5036324;28;20063;-78
2022/09/01 08:05:56;;;;;;;5.25;2.17;;;15.60;99.90;;;;;;5023324;28;20033;-78
2022/09/01 08:08:22;;;;;;;7.93;2.70;;;15.70;99.90;;;;;;5034997;28;20059;-78
2022/09/01 08:10:50;;;;;;;7.63;2.30;;;15.70;99.90;;;;;;5048640;28;20029;-77
2022/09/01 08:13:18;;;;;;;5.75;2.17;;;15.80;99.90;;;;;;5033248;28;20037;-77
2022/09/01 08:15:46;;;;;;;4.65;2.30;;;15.80;99.90;;;;;;5019662;28;20048;-77
2022/09/01 08:18:12;;;;;;;5.50;2.13;;;15.90;99.90;;;;;;5023322;28;20405;-77
2022/09/01 08:20:44;;;;;;;4.45;2.30;;;16.00;99.90;;;;;;5048625;28;20038;-77
2022/09/01 08:23:14;;;;;;;2.60;1.98;;;16.00;99.90;;;;;;5004078;28;20030;-77
2022/09/01 08:25:43;;;;;;;3.90;2.22;;;16.10;99.90;;;;;;5024366;28;20036;-77
2022/09/01 08:28:10;;;;;;;4.70;2.17;;;16.20;99.90;;;;;;5029072;28;20088;-77
2022/09/01 08:30:39;;;;;;;4.53;2.10;;;16.30;99.90;;;;;;5005298;28;20050;-77
2022/09/01 08:33:05;;;;;;;5.40;2.00;;;16.40;99.90;;;;;;5022729;28;20128;-78
2022/09/01 08:35:31;;;;;;;5.43;2.40;;;16.40;99.90;;;;;;5030980;28;20132;-77
2022/09/01 08:37:58;;;;;;;2.78;1.90;;;16.50;99.90;;;;;;5035179;28;20069;-77
2022/09/01 08:40:24;;;;;;;5.72;2.28;;;16.60;99.90;;;;;;5021233;28;20401;-79
2022/09/01 08:43:31;;;;;;;3.58;2.00;;;16.60;99.90;;;;;;5053290;28;20458;-79
2022/09/01 08:46:06;;;;;;;5.57;1.92;;;16.80;99.90;;;;;;5022726;28;20033;-79
2022/09/01 08:48:41;;;;;;;4.18;1.75;;;17.00;99.90;;;;;;5036554;28;20041;-79
2022/09/01 08:51:38;;;;;;;4.95;1.92;;;17.10;99.90;;;;;;5030041;28;20037;-79
2022/09/01 08:54:16;;;;;;;4.10;1.80;;;17.30;99.90;;;;;;5039851;28;20084;-80
2022/09/01 08:56:42;;;;;;;3.53;1.63;;;17.50;99.90;;;;;;5032113;28;20040;-78
2022/09/01 08:59:10;;;;;;;3.78;1.58;;;17.70;99.90;;;;;;5035031;28;20562;-78
2022/09/01 09:02:20;;;;;;;4.85;1.60;;;17.80;99.90;;;;;;5036192;28;20498;-78
2022/09/01 09:04:58;;;;;;;2.72;1.50;;;18.20;99.90;;;;;;4965998;28;20050;-78
2022/09/01 09:07:32;;;;;;;3.92;1.85;;;18.50;99.90;;;;;;5030845;28;20059;-78
2022/09/01 09:10:09;;;;;;;4.90;1.70;;;18.80;99.90;;;;;;5036708;28;20046;-78
2022/09/01 09:12:52;;;;;;;2.58;1.58;;;19.20;99.90;;;;;;5026679;28;20056;-78
2022/09/01 09:15:43;;;;;;;3.20;1.65;;;19.40;99.90;;;;;;5028978;28;20043;-78
2022/09/01 09:18:27;;;;;;;3.80;1.60;;;19.70;99.90;;;;;;5050489;28;20406;-79
2022/09/01 09:20:53;;;;;;;3.03;1.40;;;19.90;99.90;;;;;;5048394;28;20037;-78
2022/09/01 09:23:33;;;;;;;2.85;1.48;;;20.10;99.30;;;;;;5023664;28;20048;-78
2022/09/01 09:25:59;;;;;;;3.15;1.30;;;20.30;98.30;;;;;;5030248;28;20114;-78
2022/09/01 09:28:24;;;;;;;2.63;1.20;;;20.50;98.20;;;;;;5019621;28;20041;-78
2022/09/01 09:30:50;;;;;;;1.30;1.10;;;20.70;97.70;;;;;;5043146;28;20034;-78
2022/09/01 09:33:37;;;;;;;2.45;1.58;;;20.80;96.40;;;;;;5031616;28;20038;-78
2022/09/01 09:36:31;;;;;;;6.68;1.70;;;21.00;95.30;;;;;;5050875;28;20065;-78
2022/09/01 09:39:08;;;;;;;3.03;1.42;;;21.20;94.70;;;;;;5055338;28;20048;-78
2022/09/01 09:41:38;;;;;;;1.88;1.20;;;21.40;94.80;;;;;;5035782;28;20383;-79
2022/09/01 09:44:31;;;;;;;1.63;1.00;;;21.50;94.40;;;;;;5046212;28;20041;-78
2022/09/01 09:46:57;;;;;;;2.83;1.48;;;21.80;92.50;;;;;;5047078;28;20414;-78
2022/09/01 09:49:28;;;;;;;2.53;1.00;;;21.80;92.90;;;;;;5039672;28;20053;-78
2022/09/01 09:52:02;;;;;;;3.45;1.05;;;22.00;92.40;;;;;;5028604;28;20033;-78
2022/09/01 09:54:31;;;;;;;3.10;1.02;;;22.20;91.80;;;;;;5034927;28;20124;-78
2022/09/01 09:57:12;;;;;;;2.38;1.20;;;22.40;91.70;;;;;;5016503;28;20030;-78
2022/09/01 10:00:07;;;;;;;2.75;1.15;;;22.50;90.00;;;;;;5056583;28;20056;-79
2022/09/01 10:02:38;;;;;;;1.52;1.13;;;22.70;88.70;;;;;;5031087;28;20532;-78
2022/09/01 10:05:33;;;;;;;2.60;1.20;;;22.80;89.90;;;;;;5040445;28;20040;-78
2022/09/01 10:07:59;;;;;;;3.03;1.38;;;22.90;86.70;;;;;;5040304;28;20033;-78
2022/09/01 10:10:43;;;;;;;2.63;1.23;;;23.00;87.90;;;;;;5049002;28;20053;-79
2022/09/01 10:13:17;;;;;;;2.70;1.17;;;23.10;84.30;;;;;;5021268;28;20121;-78
2022/09/01 10:15:49;;;;;;;5.22;1.40;;;23.10;85.10;;;;;;5012095;28;20037;-78
2022/09/01 10:18:29;;;;;;;1.38;1.08;;;23.10;84.80;;;;;;5044580;28;20036;-79
2022/09/01 10:21:24;;;;;;;1.60;1.00;;;23.20;84.80;;;;;;5043200;28;20041;-79
2022/09/01 10:23:52;;;;;;;1.40;0.88;;;23.30;82.30;;;;;;5036135;28;20033;-78
2022/09/01 10:26:28;;;;;;;2.58;1.02;;;23.50;83.40;;;;;;5029060;28;20067;-79
2022/09/01 10:29:31;;;;;;;2.90;1.10;;;23.60;81.90;;;;;;5022796;28;20095;-79
2022/09/01 10:32:02;;;;;;;1.38;1.20;;;23.70;77.80;;;;;;5030014;28;20042;-79
2022/09/01 10:34:33;;;;;;;1.33;1.10;;;23.70;78.20;;;;;;5046368;28;20049;-79
2022/09/01 10:37:11;;;;;;;1.17;1.00;;;23.80;75.20;;;;;;5048375;28;20093;-78
2022/09/01 10:40:14;;;;;;;2.15;1.00;;;23.80;75.10;;;;;;5033479;28;20090;-79
2022/09/01 10:42:42;;;;;;;1.85;1.05;;;23.80;73.80;;;;;;5038149;28;20046;-79
2022/09/01 10:45:33;;;;;;;2.42;1.13;;;23.80;75.20;;;;;;5031951;28;20457;-78
2022/09/01 10:48:19;;;;;;;;;;;23.60;72.30;;;;;;5031483;28;20053;-78
2022/09/01 10:50:50;;;;;;;3.92;1.17;;;23.40;70.30;;;;;;5021465;28;20378;-78
2022/09/01 10:53:34;;;;;;;2.00;0.98;;;23.50;74.40;;;;;;5031655;28;20050;-79
2022/09/01 10:56:23;;;;;;;3.78;1.00;;;23.60;72.80;;;;;;5017566;28;20048;-79
2022/09/01 10:58:58;;;;;;;2.03;1.40;;;23.60;71.90;;;;;;5042486;28;20056;-78
2022/09/01 11:01:39;;;;;;;0.85;0.82;;;23.50;72.50;;;;;;5027817;28;20507;-78
2022/09/01 11:04:17;;;;;;;1.73;1.10;;;23.30;71.00;;;;;;5022933;28;20105;-78
2022/09/01 11:06:52;;;;;;;1.50;1.17;;;23.00;72.40;;;;;;5044652;28;20053;-78
2022/09/01 11:09:22;;;;;;;1.40;1.00;;;23.20;73.60;;;;;;5043598;28;20517;-79
2022/09/01 11:12:06;;;;;;;1.00;0.90;;;23.40;73.40;;;;;;5048571;28;20146;-78
2022/09/01 11:14:34;;;;;;;2.88;1.00;;;23.40;70.30;;;;;;5037077;28;20087;-80
2022/09/01 11:17:35;;;;;;;1.40;1.00;;;23.30;71.40;;;;;;5028053;28;20624;-79
2022/09/01 11:20:09;;;;;;;1.65;0.80;;;23.10;70.00;;;;;;5043367;28;20041;-78
2022/09/01 11:22:45;;;;;;;2.15;1.00;;;23.20;71.10;;;;;;5035778;28;20030;-78
2022/09/01 11:25:35;;;;;;;1.35;1.00;;;23.40;71.10;;;;;;5038653;28;20037;-78
2022/09/01 11:28:15;;;;;;;1.10;0.90;;;23.70;70.90;;;;;;5037653;28;20041;-78
2022/09/01 11:30:51;;;;;;;1.52;0.90;;;24.00;70.70;;;;;;5034057;28;20041;-79
2022/09/01 11:33:43;;;;;;;1.20;0.93;;;24.30;69.90;;;;;;5053130;28;20063;-79
2022/09/01 11:36:36;;;;;;;2.17;0.80;;;24.50;66.50;;;;;;5028900;28;20123;-78
2022/09/01 11:39:08;;;;;;;0.90;0.77;;;24.60;66.30;;;;;;5025679;28;20061;-78
2022/09/01 11:41:52;;;;;;;1.08;0.80;;;24.50;66.40;;;;;;5008308;28;20037;-78
2022/09/01 11:44:26;;;;;;;2.30;0.95;;;24.30;65.10;;;;;;5015882;28;20041;-79
2022/09/01 11:46:58;;;;;;;1.05;0.88;;;24.30;66.40;;;;;;5030764;28;20103;-79
2022/09/01 11:49:49;;;;;;;1.23;0.90;;;24.50;67.30;;;;;;5036062;28;20097;-78
2022/09/01 11:52:17;;;;;;;;;;;24.90;65.70;;;;;;5036652;28;20045;-79
2022/09/01 11:54:46;;;;;;;4.63;1.23;;;25.10;64.20;;;;;;5032899;28;20378;-78
2022/09/01 11:57:17;;;;;;;1.23;0.80;;;25.30;65.90;;;;;;5028692;28;20044;-79
2022/09/01 11:59:44;;;;;;;3.30;1.08;;;25.20;63.50;;;;;;5052749;28;20153;-79
2022/09/01 12:02:24;;;;;;;0.77;0.77;;;25.20;63.70;;;;;;5053263;28;20033;-79
2022/09/01 12:04:55;;;;;;;2.10;0.95;;;25.10;63.20;;;;;;5025172;28;20393;-79
2022/09/01 12:07:43;;;;;;;1.23;0.90;;;25.10;63.00;;;;;;5016190;28;20052;-79
2022/09/01 12:10:25;;;;;;;1.15;0.80;;;25.00;61.60;;;;;;5051140;28;20139;-79
2022/09/01 12:13:00;;;;;;;0.82;0.80;;;25.00;62.30;;;;;;5036447;28;20336;-79
2022/09/01 12:15:26;;;;;;;2.45;0.98;;;24.80;61.00;;;;;;5053501;28;20500;-79
2022/09/01 12:17:52;;;;;;;3.22;1.40;;;24.50;61.20;;;;;;5026733;28;20441;-79
2022/09/01 12:20:29;;;;;;;4.18;1.13;;;24.50;61.60;;;;;;5032178;28;20116;-79
2022/09/01 12:22:59;;;;;;;1.42;1.10;;;24.60;61.80;;;;;;5028384;28;20045;-79
2022/09/01 12:25:29;;;;;;;1.65;0.80;;;24.60;61.20;;;;;;5028187;28;20041;-78
2022/09/01 12:27:58;;;;;;;4.38;0.93;;;24.60;61.70;;;;;;5052096;28;20127;-79
2022/09/01 12:30:27;;;;;;;1.85;0.93;;;24.30;61.30;;;;;;5054520;28;20081;-78
2022/09/01 12:32:53;;;;;;;1.80;0.85;;;24.10;61.30;;;;;;5045631;28;20083;-79
2022/09/01 12:35:22;;;;;;;0.80;0.80;;;23.90;61.60;;;;;;5034914;28;20037;-78
2022/09/01 12:37:50;;;;;;;1.05;0.95;;;23.90;62.00;;;;;;5050078;28;20030;-79
2022/09/01 12:40:32;;;;;;;0.85;0.85;;;23.90;61.90;;;;;;5033495;28;20048;-79
2022/09/01 12:42:58;;;;;;;2.75;1.10;;;24.00;61.60;;;;;;5024686;28;20072;-78
2022/09/01 12:45:44;;;;;;;1.10;0.90;;;24.00;61.40;;;;;;5042942;28;20041;-78
2022/09/01 12:48:43;;;;;;;2.58;1.10;;;24.00;60.00;;;;;;5045413;28;20775;-79
2022/09/01 12:51:24;;;;;;;1.52;0.95;;;23.90;60.40;;;;;;4998052;28;20045;-79
2022/09/01 12:53:56;;;;;;;1.13;0.95;;;23.80;61.00;;;;;;5026570;28;20093;-78
2022/09/01 12:56:37;;;;;;;1.00;0.95;;;23.70;61.20;;;;;;5020843;28;20047;-79
2022/09/01 12:59:30;;;;;;;1.17;0.90;;;23.60;61.00;;;;;;5031511;28;20076;-79
2022/09/01 13:01:55;;;;;;;2.38;1.08;;;23.40;61.00;;;;;;5042434;28;20045;-79
2022/09/01 13:04:28;;;;;;;3.67;1.20;;;23.20;61.30;;;;;;5028804;28;20129;-79
2022/09/01 13:06:59;;;;;;;1.48;0.80;;;23.20;62.60;;;;;;5030192;28;20073;-78
2022/09/01 13:09:28;;;;;;;1.57;1.00;;;23.20;62.10;;;;;;5038802;28;20592;-79
2022/09/01 13:12:18;;;;;;;3.28;1.05;;;23.20;62.00;;;;;;5048054;28;20684;-79
2022/09/01 13:14:44;;;;;;;1.73;1.15;;;23.20;61.40;;;;;;5034619;28;20029;-78
2022/09/01 13:17:11;;;;;;;3.88;1.23;;;23.20;61.70;;;;;;5012916;28;20281;-79
2022/09/01 13:19:37;;;;;;;4.68;1.10;;;23.00;61.60;;;;;;5030553;28;20494;-78